sensor_id;sensor_type;location;lat;lon;timestamp;P1;durP1;ratioP1;P2;durP2;ratioP2
15126;SDS011;7664;52.008;4.748;2023-02-05T00:01:45;19.02;;;12.48;;
15126;SDS011;7664;52.008;4.748;2023-02-05T00:04:13;20.20;;;12.13;;
15126;SDS011;7664;52.008;4.748;2023-02-05T00:06:42;17.83;;;11.52;;
15126;SDS011;7664;52.008;4.748;2023-02-05T00:09:10;15.27;;;10.30;;
15126;SDS011;7664;52.008;4.748;2023-02-05T00:11:38;19.15;;;10.73;;
15126;SDS011;7664;52.008;4.748;2023-02-05T00:14:08;19.13;;;11.45;;
15126;SDS011;7664;52.008;4.748;2023-02-05T00:16:37;17.25;;;10.45;;
15126;SDS011;7664;52.008;4.748;2023-02-05T00:19:05;14.95;;;10.10;;
15126;SDS011;7664;52.008;4.748;2023-02-05T00:21:33;18.40;;;10.98;;
15126;SDS011;7664;52.008;4.748;2023-02-05T00:24:02;15.65;;;10.45;;
15126;SDS011;7664;52.008;4.748;2023-02-05T00:26:30;18.35;;;10.20;;
15126;SDS011;7664;52.008;4.748;2023-02-05T00:28:58;16.17;;;9.57;;
15126;SDS011;7664;52.008;4.748;2023-02-05T00:31:28;16.35;;;10.13;;
15126;SDS011;7664;52.008;4.748;2023-02-05T00:33:57;19.00;;;10.45;;
15126;SDS011;7664;52.008;4.748;2023-02-05T00:36:25;17.45;;;10.07;;
15126;SDS011;7664;52.008;4.748;2023-02-05T00:38:54;14.25;;;9.35;;
15126;SDS011;7664;52.008;4.748;2023-02-05T00:41:22;16.77;;;10.20;;
15126;SDS011;7664;52.008;4.748;2023-02-05T00:43:50;16.52;;;10.07;;
15126;SDS011;7664;52.008;4.748;2023-02-05T00:46:19;16.55;;;9.30;;
15126;SDS011;7664;52.008;4.748;2023-02-05T00:48:48;13.88;;;8.10;;
15126;SDS011;7664;52.008;4.748;2023-02-05T00:51:17;13.05;;;8.25;;
15126;SDS011;7664;52.008;4.748;2023-02-05T00:53:45;13.65;;;7.93;;
15126;SDS011;7664;52.008;4.748;2023-02-05T00:56:13;14.00;;;7.95;;
15126;SDS011;7664;52.008;4.748;2023-02-05T00:58:42;12.88;;;7.53;;
15126;SDS011;7664;52.008;4.748;2023-02-05T01:01:13;11.75;;;7.53;;
15126;SDS011;7664;52.008;4.748;2023-02-05T01:03:42;10.60;;;7.28;;
15126;SDS011;7664;52.008;4.748;2023-02-05T01:06:12;11.02;;;6.68;;
15126;SDS011;7664;52.008;4.748;2023-02-05T01:08:40;12.18;;;7.05;;
15126;SDS011;7664;52.008;4.748;2023-02-05T01:11:09;10.48;;;6.38;;
15126;SDS011;7664;52.008;4.748;2023-02-05T01:13:38;11.77;;;6.85;;
15126;SDS011;7664;52.008;4.748;2023-02-05T01:16:06;10.93;;;6.70;;
15126;SDS011;7664;52.008;4.748;2023-02-05T01:18:35;11.02;;;6.32;;
15126;SDS011;7664;52.008;4.748;2023-02-05T01:21:04;10.18;;;6.70;;
15126;SDS011;7664;52.008;4.748;2023-02-05T01:23:33;10.30;;;5.80;;
15126;SDS011;7664;52.008;4.748;2023-02-05T01:26:02;8.55;;;5.05;;
15126;SDS011;7664;52.008;4.748;2023-02-05T01:28:30;9.13;;;5.15;;
15126;SDS011;7664;52.008;4.748;2023-02-05T01:30:59;9.75;;;5.13;;
15126;SDS011;7664;52.008;4.748;2023-02-05T01:33:27;9.80;;;5.25;;
15126;SDS011;7664;52.008;4.748;2023-02-05T01:35:55;7.95;;;4.80;;
15126;SDS011;7664;52.008;4.748;2023-02-05T01:38:24;10.13;;;5.75;;
15126;SDS011;7664;52.008;4.748;2023-02-05T01:40:53;8.75;;;4.65;;
15126;SDS011;7664;52.008;4.748;2023-02-05T01:43:25;8.82;;;4.10;;
15126;SDS011;7664;52.008;4.748;2023-02-05T01:46:02;6.32;;;3.78;;
15126;SDS011;7664;52.008;4.748;2023-02-05T01:48:34;6.55;;;3.25;;
15126;SDS011;7664;52.008;4.748;2023-02-05T01:51:05;5.22;;;3.38;;
15126;SDS011;7664;52.008;4.748;2023-02-05T01:53:37;6.15;;;3.70;;
15126;SDS011;7664;52.008;4.748;2023-02-05T01:56:07;3.60;;;2.60;;
15126;SDS011;7664;52.008;4.748;2023-02-05T01:58:38;4.25;;;2.10;;
15126;SDS011;7664;52.008;4.748;2023-02-05T02:01:08;4.78;;;2.45;;
15126;SDS011;7664;52.008;4.748;2023-02-05T02:03:37;3.45;;;1.70;;
15126;SDS011;7664;52.008;4.748;2023-02-05T02:06:08;4.57;;;1.70;;
15126;SDS011;7664;52.008;4.748;2023-02-05T02:08:36;2.25;;;1.52;;
15126;SDS011;7664;52.008;4.748;2023-02-05T02:11:04;4.20;;;1.60;;
15126;SDS011;7664;52.008;4.748;2023-02-05T02:13:35;12.02;;;2.63;;
15126;SDS011;7664;52.008;4.748;2023-02-05T02:16:05;2.22;;;1.70;;
15126;SDS011;7664;52.008;4.748;2023-02-05T02:18:35;4.40;;;2.10;;
15126;SDS011;7664;52.008;4.748;2023-02-05T02:24:01;3.42;;;1.90;;
15126;SDS011;7664;52.008;4.748;2023-02-05T02:26:42;2.97;;;1.70;;
15126;SDS011;7664;52.008;4.748;2023-02-05T02:29:15;4.90;;;2.03;;
15126;SDS011;7664;52.008;4.748;2023-02-05T02:31:45;4.22;;;2.03;;
15126;SDS011;7664;52.008;4.748;2023-02-05T02:34:17;6.35;;;2.35;;
15126;SDS011;7664;52.008;4.748;2023-02-05T02:36:49;4.35;;;2.00;;
15126;SDS011;7664;52.008;4.748;2023-02-05T02:39:20;4.85;;;2.53;;
15126;SDS011;7664;52.008;4.748;2023-02-05T02:41:50;7.10;;;2.25;;
15126;SDS011;7664;52.008;4.748;2023-02-05T02:44:25;5.72;;;2.53;;
15126;SDS011;7664;52.008;4.748;2023-02-05T02:46:55;3.38;;;1.98;;
15126;SDS011;7664;52.008;4.748;2023-02-05T02:49:30;4.75;;;2.38;;
15126;SDS011;7664;52.008;4.748;2023-02-05T02:52:01;4.82;;;2.35;;
15126;SDS011;7664;52.008;4.748;2023-02-05T02:54:31;3.83;;;2.20;;
15126;SDS011;7664;52.008;4.748;2023-02-05T02:57:00;4.25;;;2.40;;
15126;SDS011;7664;52.008;4.748;2023-02-05T02:59:31;4.50;;;2.60;;
15126;SDS011;7664;52.008;4.748;2023-02-05T03:02:03;3.22;;;2.25;;
15126;SDS011;7664;52.008;4.748;2023-02-05T03:04:32;4.80;;;2.45;;
15126;SDS011;7664;52.008;4.748;2023-02-05T03:07:02;6.40;;;2.38;;
15126;SDS011;7664;52.008;4.748;2023-02-05T03:09:33;6.60;;;2.72;;
15126;SDS011;7664;52.008;4.748;2023-02-05T03:12:05;6.97;;;1.90;;
15126;SDS011;7664;52.008;4.748;2023-02-05T03:14:35;6.85;;;1.73;;
15126;SDS011;7664;52.008;4.748;2023-02-05T03:17:04;3.40;;;1.70;;
15126;SDS011;7664;52.008;4.748;2023-02-05T03:19:32;5.07;;;2.08;;
15126;SDS011;7664;52.008;4.748;2023-02-05T03:22:02;7.40;;;2.05;;
15126;SDS011;7664;52.008;4.748;2023-02-05T03:24:31;3.97;;;1.70;;
15126;SDS011;7664;52.008;4.748;2023-02-05T03:26:59;4.55;;;2.03;;
15126;SDS011;7664;52.008;4.748;2023-02-05T03:29:30;5.38;;;1.30;;
15126;SDS011;7664;52.008;4.748;2023-02-05T03:32:11;4.35;;;1.42;;
15126;SDS011;7664;52.008;4.748;2023-02-05T03:34:44;5.07;;;1.63;;
15126;SDS011;7664;52.008;4.748;2023-02-05T03:37:20;6.15;;;1.73;;
15126;SDS011;7664;52.008;4.748;2023-02-05T03:39:56;3.75;;;1.95;;
15126;SDS011;7664;52.008;4.748;2023-02-05T03:42:32;7.32;;;1.92;;
15126;SDS011;7664;52.008;4.748;2023-02-05T03:47:54;6.53;;;2.00;;
15126;SDS011;7664;52.008;4.748;2023-02-05T03:50:30;6.82;;;3.10;;
15126;SDS011;7664;52.008;4.748;2023-02-05T03:53:01;6.57;;;2.67;;
15126;SDS011;7664;52.008;4.748;2023-02-05T03:55:31;7.50;;;3.28;;
15126;SDS011;7664;52.008;4.748;2023-02-05T03:58:05;4.30;;;2.45;;
15126;SDS011;7664;52.008;4.748;2023-02-05T04:00:35;6.95;;;3.28;;
15126;SDS011;7664;52.008;4.748;2023-02-05T04:03:05;7.10;;;3.38;;
15126;SDS011;7664;52.008;4.748;2023-02-05T04:05:35;7.88;;;3.70;;
15126;SDS011;7664;52.008;4.748;2023-02-05T04:08:04;8.32;;;2.97;;
15126;SDS011;7664;52.008;4.748;2023-02-05T04:10:40;9.20;;;3.67;;
15126;SDS011;7664;52.008;4.748;2023-02-05T04:13:08;7.95;;;3.22;;
15126;SDS011;7664;52.008;4.748;2023-02-05T04:15:39;5.95;;;2.95;;
15126;SDS011;7664;52.008;4.748;2023-02-05T04:18:11;9.27;;;3.88;;
15126;SDS011;7664;52.008;4.748;2023-02-05T04:20:41;7.47;;;3.90;;
15126;SDS011;7664;52.008;4.748;2023-02-05T04:23:10;5.85;;;3.72;;
15126;SDS011;7664;52.008;4.748;2023-02-05T04:25:39;8.52;;;3.95;;
15126;SDS011;7664;52.008;4.748;2023-02-05T04:28:16;7.43;;;3.33;;
15126;SDS011;7664;52.008;4.748;2023-02-05T04:30:44;10.05;;;4.22;;
15126;SDS011;7664;52.008;4.748;2023-02-05T04:33:14;7.07;;;3.88;;
15126;SDS011;7664;52.008;4.748;2023-02-05T04:35:42;5.93;;;2.85;;
15126;SDS011;7664;52.008;4.748;2023-02-05T04:38:11;4.10;;;2.90;;
15126;SDS011;7664;52.008;4.748;2023-02-05T04:40:39;4.10;;;2.42;;
15126;SDS011;7664;52.008;4.748;2023-02-05T04:43:08;4.93;;;1.95;;
15126;SDS011;7664;52.008;4.748;2023-02-05T04:45:36;4.85;;;2.30;;
15126;SDS011;7664;52.008;4.748;2023-02-05T04:48:04;1.98;;;1.33;;
15126;SDS011;7664;52.008;4.748;2023-02-05T04:50:35;2.75;;;1.13;;
15126;SDS011;7664;52.008;4.748;2023-02-05T04:53:04;3.13;;;1.27;;
15126;SDS011;7664;52.008;4.748;2023-02-05T04:55:32;4.68;;;0.95;;
15126;SDS011;7664;52.008;4.748;2023-02-05T04:58:01;3.58;;;0.85;;
15126;SDS011;7664;52.008;4.748;2023-02-05T05:00:29;4.30;;;1.10;;
15126;SDS011;7664;52.008;4.748;2023-02-05T05:02:58;6.10;;;1.33;;
15126;SDS011;7664;52.008;4.748;2023-02-05T05:05:26;3.63;;;1.10;;
15126;SDS011;7664;52.008;4.748;2023-02-05T05:07:56;7.53;;;2.65;;
15126;SDS011;7664;52.008;4.748;2023-02-05T05:10:26;4.40;;;0.68;;
15126;SDS011;7664;52.008;4.748;2023-02-05T05:12:54;7.43;;;1.30;;
15126;SDS011;7664;52.008;4.748;2023-02-05T05:15:22;6.65;;;1.10;;
15126;SDS011;7664;52.008;4.748;2023-02-05T05:17:50;11.25;;;1.63;;
15126;SDS011;7664;52.008;4.748;2023-02-05T05:20:19;5.35;;;1.08;;
15126;SDS011;7664;52.008;4.748;2023-02-05T05:22:47;4.15;;;0.88;;
15126;SDS011;7664;52.008;4.748;2023-02-05T05:25:17;6.75;;;1.52;;
15126;SDS011;7664;52.008;4.748;2023-02-05T05:27:45;10.85;;;1.80;;
15126;SDS011;7664;52.008;4.748;2023-02-05T05:30:13;6.70;;;1.65;;
15126;SDS011;7664;52.008;4.748;2023-02-05T05:32:42;12.93;;;1.55;;
15126;SDS011;7664;52.008;4.748;2023-02-05T05:35:10;5.75;;;0.95;;
15126;SDS011;7664;52.008;4.748;2023-02-05T05:37:38;5.63;;;0.85;;
15126;SDS011;7664;52.008;4.748;2023-02-05T05:40:08;5.32;;;1.52;;
15126;SDS011;7664;52.008;4.748;2023-02-05T05:42:56;8.15;;;1.25;;
15126;SDS011;7664;52.008;4.748;2023-02-05T05:45:42;3.30;;;0.80;;
15126;SDS011;7664;52.008;4.748;2023-02-05T05:48:11;7.03;;;1.58;;
15126;SDS011;7664;52.008;4.748;2023-02-05T05:50:39;10.15;;;0.98;;
15126;SDS011;7664;52.008;4.748;2023-02-05T05:53:07;7.00;;;1.73;;
15126;SDS011;7664;52.008;4.748;2023-02-05T05:55:35;10.55;;;1.73;;
15126;SDS011;7664;52.008;4.748;2023-02-05T05:58:05;2.33;;;0.70;;
15126;SDS011;7664;52.008;4.748;2023-02-05T06:00:33;5.55;;;0.80;;
15126;SDS011;7664;52.008;4.748;2023-02-05T06:03:02;6.55;;;1.42;;
15126;SDS011;7664;52.008;4.748;2023-02-05T06:05:30;8.88;;;1.08;;
15126;SDS011;7664;52.008;4.748;2023-02-05T06:07:59;6.97;;;1.10;;
15126;SDS011;7664;52.008;4.748;2023-02-05T06:10:27;3.88;;;0.95;;
15126;SDS011;7664;52.008;4.748;2023-02-05T06:12:55;10.10;;;1.10;;
15126;SDS011;7664;52.008;4.748;2023-02-05T06:15:25;9.35;;;1.10;;
15126;SDS011;7664;52.008;4.748;2023-02-05T06:17:54;11.15;;;1.48;;
15126;SDS011;7664;52.008;4.748;2023-02-05T06:20:22;5.22;;;1.00;;
15126;SDS011;7664;52.008;4.748;2023-02-05T06:22:50;7.40;;;1.38;;
15126;SDS011;7664;52.008;4.748;2023-02-05T06:25:19;7.43;;;1.25;;
15126;SDS011;7664;52.008;4.748;2023-02-05T06:27:47;6.68;;;0.90;;
15126;SDS011;7664;52.008;4.748;2023-02-05T06:30:15;12.52;;;1.58;;
15126;SDS011;7664;52.008;4.748;2023-02-05T06:32:45;7.32;;;1.00;;
15126;SDS011;7664;52.008;4.748;2023-02-05T06:35:13;4.97;;;1.13;;
15126;SDS011;7664;52.008;4.748;2023-02-05T06:37:42;11.45;;;1.83;;
15126;SDS011;7664;52.008;4.748;2023-02-05T06:40:13;7.65;;;1.25;;
15126;SDS011;7664;52.008;4.748;2023-02-05T06:42:43;9.13;;;1.27;;
15126;SDS011;7664;52.008;4.748;2023-02-05T06:45:11;10.55;;;1.83;;
15126;SDS011;7664;52.008;4.748;2023-02-05T06:47:39;10.55;;;1.33;;
15126;SDS011;7664;52.008;4.748;2023-02-05T06:50:09;7.20;;;1.65;;
15126;SDS011;7664;52.008;4.748;2023-02-05T06:52:38;8.30;;;1.58;;
15126;SDS011;7664;52.008;4.748;2023-02-05T06:55:06;4.55;;;1.63;;
15126;SDS011;7664;52.008;4.748;2023-02-05T06:57:34;5.05;;;1.38;;
15126;SDS011;7664;52.008;4.748;2023-02-05T07:00:03;8.13;;;2.05;;
15126;SDS011;7664;52.008;4.748;2023-02-05T07:02:31;8.68;;;1.67;;
15126;SDS011;7664;52.008;4.748;2023-02-05T07:05:00;10.85;;;1.52;;
15126;SDS011;7664;52.008;4.748;2023-02-05T07:07:30;7.60;;;1.58;;
15126;SDS011;7664;52.008;4.748;2023-02-05T07:09:59;9.38;;;1.15;;
15126;SDS011;7664;52.008;4.748;2023-02-05T07:12:27;17.48;;;2.58;;
15126;SDS011;7664;52.008;4.748;2023-02-05T07:14:56;6.53;;;1.20;;
15126;SDS011;7664;52.008;4.748;2023-02-05T07:17:24;6.80;;;1.42;;
15126;SDS011;7664;52.008;4.748;2023-02-05T07:19:52;10.68;;;2.22;;
15126;SDS011;7664;52.008;4.748;2023-02-05T07:22:21;17.23;;;2.60;;
15126;SDS011;7664;52.008;4.748;2023-02-05T07:24:50;9.23;;;1.45;;
15126;SDS011;7664;52.008;4.748;2023-02-05T07:27:18;16.52;;;3.33;;
15126;SDS011;7664;52.008;4.748;2023-02-05T07:29:47;17.95;;;1.60;;
15126;SDS011;7664;52.008;4.748;2023-02-05T07:32:15;14.60;;;1.67;;
15126;SDS011;7664;52.008;4.748;2023-02-05T07:34:43;15.82;;;1.98;;
15126;SDS011;7664;52.008;4.748;2023-02-05T07:37:12;15.75;;;1.98;;
15126;SDS011;7664;52.008;4.748;2023-02-05T07:39:40;10.13;;;1.67;;
15126;SDS011;7664;52.008;4.748;2023-02-05T07:42:10;9.75;;;1.55;;
15126;SDS011;7664;52.008;4.748;2023-02-05T07:44:46;14.10;;;2.55;;
15126;SDS011;7664;52.008;4.748;2023-02-05T07:47:15;10.48;;;1.30;;
15126;SDS011;7664;52.008;4.748;2023-02-05T07:49:43;13.43;;;2.75;;
15126;SDS011;7664;52.008;4.748;2023-02-05T07:52:11;11.45;;;1.77;;
15126;SDS011;7664;52.008;4.748;2023-02-05T07:54:40;9.45;;;1.55;;
15126;SDS011;7664;52.008;4.748;2023-02-05T07:57:09;15.25;;;2.53;;
15126;SDS011;7664;52.008;4.748;2023-02-05T07:59:38;8.68;;;1.58;;
15126;SDS011;7664;52.008;4.748;2023-02-05T08:02:06;13.07;;;2.45;;
15126;SDS011;7664;52.008;4.748;2023-02-05T08:04:34;12.48;;;2.10;;
15126;SDS011;7664;52.008;4.748;2023-02-05T08:07:03;17.60;;;2.13;;
15126;SDS011;7664;52.008;4.748;2023-02-05T08:09:31;15.15;;;2.65;;
15126;SDS011;7664;52.008;4.748;2023-02-05T08:11:59;20.63;;;3.13;;
15126;SDS011;7664;52.008;4.748;2023-02-05T08:14:29;18.60;;;2.58;;
15126;SDS011;7664;52.008;4.748;2023-02-05T08:16:57;18.38;;;3.28;;
15126;SDS011;7664;52.008;4.748;2023-02-05T08:19:26;8.95;;;1.88;;
15126;SDS011;7664;52.008;4.748;2023-02-05T08:21:54;17.13;;;2.83;;
15126;SDS011;7664;52.008;4.748;2023-02-05T08:24:22;10.40;;;2.30;;
15126;SDS011;7664;52.008;4.748;2023-02-05T08:26:51;9.82;;;2.20;;
15126;SDS011;7664;52.008;4.748;2023-02-05T08:29:19;12.88;;;2.00;;
15126;SDS011;7664;52.008;4.748;2023-02-05T08:31:49;15.50;;;2.45;;
15126;SDS011;7664;52.008;4.748;2023-02-05T08:34:17;22.00;;;3.53;;
15126;SDS011;7664;52.008;4.748;2023-02-05T08:36:46;12.45;;;2.40;;
15126;SDS011;7664;52.008;4.748;2023-02-05T08:39:14;14.45;;;2.92;;
15126;SDS011;7664;52.008;4.748;2023-02-05T08:41:42;24.30;;;3.17;;
15126;SDS011;7664;52.008;4.748;2023-02-05T08:44:11;10.57;;;2.28;;
15126;SDS011;7664;52.008;4.748;2023-02-05T08:46:40;16.60;;;2.88;;
15126;SDS011;7664;52.008;4.748;2023-02-05T08:49:17;16.48;;;3.30;;
15126;SDS011;7664;52.008;4.748;2023-02-05T08:51:45;18.55;;;3.58;;
15126;SDS011;7664;52.008;4.748;2023-02-05T08:54:14;19.83;;;3.78;;
15126;SDS011;7664;52.008;4.748;2023-02-05T08:56:43;19.63;;;3.67;;
15126;SDS011;7664;52.008;4.748;2023-02-05T08:59:11;14.30;;;2.60;;
15126;SDS011;7664;52.008;4.748;2023-02-05T09:01:40;22.60;;;2.45;;
15126;SDS011;7664;52.008;4.748;2023-02-05T09:04:11;24.27;;;2.83;;
15126;SDS011;7664;52.008;4.748;2023-02-05T09:06:41;23.02;;;3.40;;
15126;SDS011;7664;52.008;4.748;2023-02-05T09:09:09;23.05;;;2.55;;
15126;SDS011;7664;52.008;4.748;2023-02-05T09:11:38;26.65;;;4.40;;
15126;SDS011;7664;52.008;4.748;2023-02-05T09:14:06;19.92;;;3.50;;
15126;SDS011;7664;52.008;4.748;2023-02-05T09:16:35;16.55;;;3.00;;
15126;SDS011;7664;52.008;4.748;2023-02-05T09:19:04;22.02;;;3.83;;
15126;SDS011;7664;52.008;4.748;2023-02-05T09:21:32;17.35;;;3.15;;
15126;SDS011;7664;52.008;4.748;2023-02-05T09:24:02;19.58;;;2.83;;
15126;SDS011;7664;52.008;4.748;2023-02-05T09:26:30;18.92;;;2.85;;
15126;SDS011;7664;52.008;4.748;2023-02-05T09:28:59;14.52;;;2.45;;
15126;SDS011;7664;52.008;4.748;2023-02-05T09:31:27;13.45;;;3.00;;
15126;SDS011;7664;52.008;4.748;2023-02-05T09:33:56;9.88;;;2.10;;
15126;SDS011;7664;52.008;4.748;2023-02-05T09:36:24;24.75;;;2.83;;
15126;SDS011;7664;52.008;4.748;2023-02-05T09:38:52;15.32;;;2.63;;
15126;SDS011;7664;52.008;4.748;2023-02-05T09:41:43;16.67;;;2.70;;
15126;SDS011;7664;52.008;4.748;2023-02-05T09:44:16;19.80;;;3.25;;
15126;SDS011;7664;52.008;4.748;2023-02-05T09:46:49;16.42;;;3.08;;
15126;SDS011;7664;52.008;4.748;2023-02-05T09:49:21;19.45;;;4.22;;
15126;SDS011;7664;52.008;4.748;2023-02-05T09:51:55;18.42;;;3.00;;
15126;SDS011;7664;52.008;4.748;2023-02-05T09:54:25;20.80;;;3.55;;
15126;SDS011;7664;52.008;4.748;2023-02-05T09:56:56;20.65;;;4.75;;
15126;SDS011;7664;52.008;4.748;2023-02-05T09:59:26;17.02;;;3.53;;
15126;SDS011;7664;52.008;4.748;2023-02-05T10:01:56;13.45;;;3.25;;
15126;SDS011;7664;52.008;4.748;2023-02-05T10:04:25;16.27;;;3.92;;
15126;SDS011;7664;52.008;4.748;2023-02-05T10:09:43;22.38;;;3.10;;
15126;SDS011;7664;52.008;4.748;2023-02-05T10:12:21;15.65;;;3.10;;
15126;SDS011;7664;52.008;4.748;2023-02-05T10:14:57;22.10;;;3.40;;
15126;SDS011;7664;52.008;4.748;2023-02-05T10:17:33;11.25;;;2.90;;
15126;SDS011;7664;52.008;4.748;2023-02-05T10:20:13;25.05;;;3.20;;
15126;SDS011;7664;52.008;4.748;2023-02-05T10:22:47;18.13;;;3.03;;
15126;SDS011;7664;52.008;4.748;2023-02-05T10:25:31;16.15;;;3.25;;
15126;SDS011;7664;52.008;4.748;2023-02-05T10:28:04;17.48;;;2.47;;
15126;SDS011;7664;52.008;4.748;2023-02-05T10:30:35;15.52;;;2.28;;
15126;SDS011;7664;52.008;4.748;2023-02-05T10:33:06;15.93;;;2.10;;
15126;SDS011;7664;52.008;4.748;2023-02-05T10:35:37;13.52;;;2.90;;
15126;SDS011;7664;52.008;4.748;2023-02-05T10:38:11;11.13;;;2.47;;
15126;SDS011;7664;52.008;4.748;2023-02-05T10:40:40;15.60;;;3.30;;
15126;SDS011;7664;52.008;4.748;2023-02-05T10:43:16;13.95;;;3.08;;
15126;SDS011;7664;52.008;4.748;2023-02-05T10:45:44;11.70;;;2.47;;
15126;SDS011;7664;52.008;4.748;2023-02-05T10:48:24;10.85;;;2.75;;
15126;SDS011;7664;52.008;4.748;2023-02-05T10:50:56;9.68;;;2.35;;
15126;SDS011;7664;52.008;4.748;2023-02-05T10:53:27;15.25;;;2.40;;
15126;SDS011;7664;52.008;4.748;2023-02-05T10:55:56;11.32;;;2.17;;
15126;SDS011;7664;52.008;4.748;2023-02-05T10:58:38;13.60;;;3.28;;
15126;SDS011;7664;52.008;4.748;2023-02-05T11:01:10;14.77;;;2.63;;
15126;SDS011;7664;52.008;4.748;2023-02-05T11:03:39;18.55;;;2.80;;
15126;SDS011;7664;52.008;4.748;2023-02-05T11:06:12;11.20;;;2.85;;
15126;SDS011;7664;52.008;4.748;2023-02-05T11:08:42;13.85;;;2.25;;
15126;SDS011;7664;52.008;4.748;2023-02-05T11:11:17;21.30;;;2.67;;
15126;SDS011;7664;52.008;4.748;2023-02-05T11:13:49;24.60;;;3.53;;
15126;SDS011;7664;52.008;4.748;2023-02-05T11:16:18;17.02;;;2.33;;
15126;SDS011;7664;52.008;4.748;2023-02-05T11:18:53;15.80;;;3.33;;
15126;SDS011;7664;52.008;4.748;2023-02-05T11:21:22;18.52;;;2.90;;
15126;SDS011;7664;52.008;4.748;2023-02-05T11:23:53;13.48;;;2.40;;
15126;SDS011;7664;52.008;4.748;2023-02-05T11:26:22;23.92;;;2.42;;
15126;SDS011;7664;52.008;4.748;2023-02-05T11:28:51;8.77;;;2.03;;
15126;SDS011;7664;52.008;4.748;2023-02-05T11:31:22;17.08;;;2.33;;
15126;SDS011;7664;52.008;4.748;2023-02-05T11:33:52;14.40;;;2.38;;
15126;SDS011;7664;52.008;4.748;2023-02-05T11:36:36;14.38;;;2.58;;
15126;SDS011;7664;52.008;4.748;2023-02-05T11:39:05;18.90;;;2.83;;
15126;SDS011;7664;52.008;4.748;2023-02-05T11:41:34;11.85;;;3.00;;
15126;SDS011;7664;52.008;4.748;2023-02-05T11:44:17;16.38;;;2.78;;
15126;SDS011;7664;52.008;4.748;2023-02-05T11:46:46;7.75;;;1.70;;
15126;SDS011;7664;52.008;4.748;2023-02-05T11:49:19;11.40;;;1.75;;
15126;SDS011;7664;52.008;4.748;2023-02-05T11:51:48;9.80;;;1.77;;
15126;SDS011;7664;52.008;4.748;2023-02-05T11:54:19;15.05;;;2.85;;
15126;SDS011;7664;52.008;4.748;2023-02-05T11:57:01;8.65;;;1.50;;
15126;SDS011;7664;52.008;4.748;2023-02-05T11:59:32;11.90;;;2.47;;
15126;SDS011;7664;52.008;4.748;2023-02-05T12:02:17;10.13;;;1.60;;
15126;SDS011;7664;52.008;4.748;2023-02-05T12:04:56;12.65;;;1.95;;
15126;SDS011;7664;52.008;4.748;2023-02-05T12:07:25;9.70;;;1.95;;
15126;SDS011;7664;52.008;4.748;2023-02-05T12:09:56;13.75;;;1.98;;
15126;SDS011;7664;52.008;4.748;2023-02-05T12:12:27;13.25;;;2.03;;
15126;SDS011;7664;52.008;4.748;2023-02-05T12:15:02;12.10;;;1.90;;
15126;SDS011;7664;52.008;4.748;2023-02-05T12:17:33;10.35;;;1.60;;
15126;SDS011;7664;52.008;4.748;2023-02-05T12:20:10;13.68;;;1.92;;
15126;SDS011;7664;52.008;4.748;2023-02-05T12:22:45;18.52;;;2.75;;
15126;SDS011;7664;52.008;4.748;2023-02-05T12:25:15;15.75;;;2.03;;
15126;SDS011;7664;52.008;4.748;2023-02-05T12:27:54;18.80;;;2.78;;
15126;SDS011;7664;52.008;4.748;2023-02-05T12:30:31;7.28;;;1.85;;
15126;SDS011;7664;52.008;4.748;2023-02-05T12:33:08;11.98;;;2.22;;
15126;SDS011;7664;52.008;4.748;2023-02-05T12:35:45;12.45;;;1.75;;
15126;SDS011;7664;52.008;4.748;2023-02-05T12:38:16;13.05;;;2.45;;
15126;SDS011;7664;52.008;4.748;2023-02-05T12:41:01;13.77;;;2.75;;
15126;SDS011;7664;52.008;4.748;2023-02-05T12:43:35;8.73;;;1.92;;
15126;SDS011;7664;52.008;4.748;2023-02-05T12:46:08;21.70;;;2.22;;
15126;SDS011;7664;52.008;4.748;2023-02-05T12:48:47;10.35;;;1.73;;
15126;SDS011;7664;52.008;4.748;2023-02-05T12:51:26;9.90;;;2.00;;
15126;SDS011;7664;52.008;4.748;2023-02-05T12:54:06;5.45;;;1.63;;
15126;SDS011;7664;52.008;4.748;2023-02-05T12:56:44;12.55;;;2.45;;
15126;SDS011;7664;52.008;4.748;2023-02-05T12:59:17;9.30;;;1.77;;
15126;SDS011;7664;52.008;4.748;2023-02-05T13:01:48;14.50;;;2.08;;
15126;SDS011;7664;52.008;4.748;2023-02-05T13:04:20;7.13;;;1.70;;
15126;SDS011;7664;52.008;4.748;2023-02-05T13:06:51;10.50;;;1.83;;
15126;SDS011;7664;52.008;4.748;2023-02-05T13:09:21;15.07;;;2.33;;
15126;SDS011;7664;52.008;4.748;2023-02-05T13:11:52;16.38;;;2.67;;
15126;SDS011;7664;52.008;4.748;2023-02-05T13:14:22;10.10;;;2.13;;
15126;SDS011;7664;52.008;4.748;2023-02-05T13:16:54;14.27;;;1.90;;
15126;SDS011;7664;52.008;4.748;2023-02-05T13:19:27;7.50;;;2.05;;
15126;SDS011;7664;52.008;4.748;2023-02-05T13:21:58;14.65;;;2.75;;
15126;SDS011;7664;52.008;4.748;2023-02-05T13:24:46;16.92;;;2.53;;
15126;SDS011;7664;52.008;4.748;2023-02-05T13:27:35;16.55;;;2.20;;
15126;SDS011;7664;52.008;4.748;2023-02-05T13:30:25;8.10;;;1.85;;
15126;SDS011;7664;52.008;4.748;2023-02-05T13:32:57;11.05;;;2.08;;
15126;SDS011;7664;52.008;4.748;2023-02-05T13:35:26;9.55;;;1.73;;
15126;SDS011;7664;52.008;4.748;2023-02-05T13:38:02;11.25;;;1.95;;
15126;SDS011;7664;52.008;4.748;2023-02-05T13:40:40;13.57;;;3.08;;
15126;SDS011;7664;52.008;4.748;2023-02-05T13:43:23;10.98;;;1.60;;
15126;SDS011;7664;52.008;4.748;2023-02-05T13:48:53;11.85;;;2.75;;
15126;SDS011;7664;52.008;4.748;2023-02-05T13:51:37;12.65;;;2.05;;
15126;SDS011;7664;52.008;4.748;2023-02-05T13:54:21;13.23;;;2.60;;
15126;SDS011;7664;52.008;4.748;2023-02-05T13:56:55;11.20;;;2.42;;
15126;SDS011;7664;52.008;4.748;2023-02-05T13:59:27;11.63;;;2.53;;
15126;SDS011;7664;52.008;4.748;2023-02-05T14:02:00;16.00;;;2.55;;
15126;SDS011;7664;52.008;4.748;2023-02-05T14:04:33;9.25;;;1.67;;
15126;SDS011;7664;52.008;4.748;2023-02-05T14:07:04;13.55;;;2.60;;
15126;SDS011;7664;52.008;4.748;2023-02-05T14:09:34;11.80;;;2.45;;
15126;SDS011;7664;52.008;4.748;2023-02-05T14:12:05;12.20;;;1.75;;
15126;SDS011;7664;52.008;4.748;2023-02-05T14:14:35;12.63;;;2.47;;
15126;SDS011;7664;52.008;4.748;2023-02-05T14:19:51;10.85;;;2.22;;
15126;SDS011;7664;52.008;4.748;2023-02-05T14:22:37;24.23;;;4.00;;
15126;SDS011;7664;52.008;4.748;2023-02-05T14:27:55;9.75;;;2.38;;
15126;SDS011;7664;52.008;4.748;2023-02-05T14:33:29;21.42;;;3.17;;
15126;SDS011;7664;52.008;4.748;2023-02-05T14:36:24;16.88;;;2.38;;
15126;SDS011;7664;52.008;4.748;2023-02-05T14:38:50;12.70;;;2.25;;
15126;SDS011;7664;52.008;4.748;2023-02-05T14:41:19;6.63;;;2.47;;
15126;SDS011;7664;52.008;4.748;2023-02-05T14:43:53;18.80;;;2.70;;
15126;SDS011;7664;52.008;4.748;2023-02-05T14:46:24;13.52;;;2.95;;
15126;SDS011;7664;52.008;4.748;2023-02-05T14:48:56;13.73;;;2.25;;
15126;SDS011;7664;52.008;4.748;2023-02-05T14:51:28;14.45;;;2.05;;
15126;SDS011;7664;52.008;4.748;2023-02-05T14:53:58;21.02;;;2.65;;
15126;SDS011;7664;52.008;4.748;2023-02-05T14:56:29;13.15;;;2.58;;
15126;SDS011;7664;52.008;4.748;2023-02-05T14:59:00;9.68;;;1.83;;
15126;SDS011;7664;52.008;4.748;2023-02-05T15:01:42;13.52;;;2.35;;
15126;SDS011;7664;52.008;4.748;2023-02-05T15:04:19;17.10;;;2.50;;
15126;SDS011;7664;52.008;4.748;2023-02-05T15:06:51;12.20;;;2.03;;
15126;SDS011;7664;52.008;4.748;2023-02-05T15:09:20;12.48;;;2.83;;
15126;SDS011;7664;52.008;4.748;2023-02-05T15:11:55;12.02;;;2.45;;
15126;SDS011;7664;52.008;4.748;2023-02-05T15:14:37;11.02;;;2.50;;
15126;SDS011;7664;52.008;4.748;2023-02-05T15:19:54;13.18;;;3.13;;
15126;SDS011;7664;52.008;4.748;2023-02-05T15:22:27;17.45;;;2.85;;
15126;SDS011;7664;52.008;4.748;2023-02-05T15:24:58;8.45;;;2.20;;
15126;SDS011;7664;52.008;4.748;2023-02-05T15:27:29;14.05;;;3.20;;
15126;SDS011;7664;52.008;4.748;2023-02-05T15:30:02;13.57;;;3.15;;
15126;SDS011;7664;52.008;4.748;2023-02-05T15:32:33;17.75;;;3.88;;
15126;SDS011;7664;52.008;4.748;2023-02-05T15:35:02;8.50;;;2.08;;
15126;SDS011;7664;52.008;4.748;2023-02-05T15:37:34;18.00;;;2.92;;
15126;SDS011;7664;52.008;4.748;2023-02-05T15:40:07;11.88;;;2.30;;